To NAV CANADA Home Page Login to a new session Search on AWWS site Disclaimer Vers la page française équivalente Tips FAQ What's new on the site To the Forecasts and Observations / NOTAM section To "File a Flight Plan" website Publications and other links Update of the User's profile FIC Telephone Numbers My Weather Data Folder Route Weather Data Regional Weather Data Local Weather Data To the Forecasts and Observations / NOTAM section
Request Generated 11/30/2022 at 16:07:44 UTC . Weather information available at that time is displayed.

METAR/TAF

If you find any discrepancies between the coded METAR/TAF and the plain language METAR/TAF please use the coded METAR/TAF. LWIS bulletins are not decoded in plain language.

CALGARY/SPRINGBANK/AB    (show WxCam)

SPECI CYBW 301602Z AUTO 13009KT 6SM -SN OVC014 M19/M21 A2970 RMK SLP162=
SPECI
LOCATION
CYBW - CALGARY/SPRINGBANK/AB
DATE - TIME
30 NOVEMBER 2022 - 1602 UTC
WIND
130 TRUE @ 9  KNOTS
VISIBILITY
6 STAT.  MILES
RUNWAY VISUAL RANGE
WEATHER
LIGHT SNOW
CLOUDINESS
OVERCAST 1400  FT
TEMP / DEWPOINT
-19 C / -21 C
ALTIMETER
29.70 IN HG
RECENT WEATHER
WIND SHEAR

METAR CYBW 301600Z AUTO 14010KT 4SM -SN OVC014 M19/M21 A2970 RMK SLP162=
METAR
LOCATION
CYBW - CALGARY/SPRINGBANK/AB
DATE - TIME
30 NOVEMBER 2022 - 1600 UTC
WIND
140 TRUE @ 10  KNOTS
VISIBILITY
4 STAT.  MILES
RUNWAY VISUAL RANGE
WEATHER
LIGHT SNOW
CLOUDINESS
OVERCAST 1400  FT
TEMP / DEWPOINT
-19 C / -21 C
ALTIMETER
29.70 IN HG
RECENT WEATHER
WIND SHEAR

SPECI CYBW 301516Z AUTO 14011KT 5SM -SN OVC014 M19/M21 A2971 RMK SLP166=
SPECI
LOCATION
CYBW - CALGARY/SPRINGBANK/AB
DATE - TIME
30 NOVEMBER 2022 - 1516 UTC
WIND
140 TRUE @ 11  KNOTS
VISIBILITY
5 STAT.  MILES
RUNWAY VISUAL RANGE
WEATHER
LIGHT SNOW
CLOUDINESS
OVERCAST 1400  FT
TEMP / DEWPOINT
-19 C / -21 C
ALTIMETER
29.71 IN HG
RECENT WEATHER
WIND SHEAR

METAR CYBW 301500Z AUTO 14012KT 9SM -SN OVC014 M19/M21 A2972 RMK SLP166=
METAR
LOCATION
CYBW - CALGARY/SPRINGBANK/AB
DATE - TIME
30 NOVEMBER 2022 - 1500 UTC
WIND
140 TRUE @ 12  KNOTS
VISIBILITY
9 STAT.  MILES
RUNWAY VISUAL RANGE
WEATHER
LIGHT SNOW
CLOUDINESS
OVERCAST 1400  FT
TEMP / DEWPOINT
-19 C / -21 C
ALTIMETER
29.72 IN HG
RECENT WEATHER
WIND SHEAR

SPECI CYBW 301417Z AUTO 13010G16KT 9SM -SN OVC016 M19/M21 A2973 RMK SLP175=
SPECI
LOCATION
CYBW - CALGARY/SPRINGBANK/AB
DATE - TIME
30 NOVEMBER 2022 - 1417 UTC
WIND
130 TRUE @ 10  KNOTS
GUSTS
16 KNOTS
VISIBILITY
9 STAT.  MILES
RUNWAY VISUAL RANGE
WEATHER
LIGHT SNOW
CLOUDINESS
OVERCAST 1600  FT
TEMP / DEWPOINT
-19 C / -21 C
ALTIMETER
29.73 IN HG
RECENT WEATHER
WIND SHEAR

METAR CYBW 301400Z AUTO 13010KT 9SM OVC016 M19/M21 A2975 RMK SLP178=
METAR
LOCATION
CYBW - CALGARY/SPRINGBANK/AB
DATE - TIME
30 NOVEMBER 2022 - 1400 UTC
WIND
130 TRUE @ 10  KNOTS
VISIBILITY
9 STAT.  MILES
RUNWAY VISUAL RANGE
WEATHER
CLOUDINESS
OVERCAST 1600  FT
TEMP / DEWPOINT
-19 C / -21 C
ALTIMETER
29.75 IN HG
RECENT WEATHER
WIND SHEAR

TAF AMD CYBW 301301Z 3013/0101 14010KT P6SM -SN OVC025 TEMPO 3013/3017 4SM -SHSN OVC020 FM301700 12008KT P6SM -SHSN SCT015 OVC025 TEMPO 3017/3022 2SM -SHSN VV015 BECMG 3019/3021 04005KT FM302200 03010KT P6SM -SN OVC030 TEMPO 3022/0101 5SM -SHSN BKN020 OVC030 BECMG 3023/0101 35012KT RMK FCST BASED ON AUTO OBS. NXT FCST BY 301800Z=
AMENDED TAF
LOCATION

CYBW - CALGARY/SPRINGBANK/AB
VALIDITY [UTC]
30 NOV - 1301 to
01 DEC - 0100
 
TIMES
[UTC]
WIND
[DEGREES TRUE]
VISIBILITY
[STAT. MILES]
WEATHER
CLOUDINESS
[FEET AGL]
 
30 NOV - 1300 to
30 NOV - 1700
140 @ 10 KNOTS
6+
LIGHT SNOW
2500 OVERCAST
TEMPORARY CHANGES
30 NOV - 1300 to
30 NOV - 1700
 
4
LIGHT SNOW SHOWER
2000 OVERCAST
 
30 NOV - 1700 to
30 NOV - 2200
120 @ 8 KNOTS
6+
LIGHT SNOW SHOWER
1500 SCATTERED
2500 OVERCAST
TEMPORARY CHANGES
30 NOV - 1700 to
30 NOV - 2200
 
2
LIGHT SNOW SHOWER
VERTICAL VISIBILITY 1500
BECOMING
30 NOV - 1900 to
30 NOV - 2100
40 @ 5 KNOTS
 
 
 
 
30 NOV - 2200 to
01 DEC - 0100
30 @ 10 KNOTS
6+
LIGHT SNOW
3000 OVERCAST
TEMPORARY CHANGES
30 NOV - 2200 to
01 DEC - 0100
 
5
LIGHT SNOW SHOWER
2000 BROKEN
3000 OVERCAST
BECOMING
30 NOV - 2300 to
01 DEC - 0100
350 @ 12 KNOTS
 
 
 
REMARKS


Your time UTC time
Weather data provided by Environment Canada and NAV CANADA